Time;durP1;ratioP1;P1;durP2;ratioP2;P2;SDS_P1;SDS_P2;PMS_P1;PMS_P2;Temp;Humidity;BMP_temperature;BMP_pressure;BME280_temperature;BME280_humidity;BME280_pressure;Samples;Min_cycle;Max_cycle;Signal;HPM_P1;HPM_P2
2022/01/26 00:08:05;;;;;;;21.55;11.13;;;;;;;-4.73;91.43;100840.38;10452858;28;20041;-73
2022/01/26 00:13:06;;;;;;;20.15;10.52;;;;;;;-3.95;91.94;100954.06;10423748;28;20114;-73
2022/01/26 00:18:07;;;;;;;17.83;9.93;;;;;;;-3.56;91.64;101039.94;10416269;28;20581;-73
2022/01/26 00:38:59;;;;;;;21.42;11.63;;;;;;;-3.89;90.93;100979.78;10414650;28;20068;-73
2022/01/26 00:44:00;;;;;;;20.00;10.23;;;;;;;-4.26;90.43;100946.63;10414572;28;20460;-73
2022/01/26 00:49:01;;;;;;;20.60;11.07;;;;;;;-4.41;90.51;100915.19;10414800;28;20096;-73
2022/01/26 00:54:06;;;;;;;24.52;11.57;;;;;;;-4.23;89.87;100951.69;10414689;28;20056;-73
2022/01/26 00:59:07;;;;;;;32.65;10.77;;;;;;;-4.90;90.20;100888.53;10415017;28;20041;-73
2022/01/26 01:04:08;;;;;;;21.73;10.55;;;;;;;-4.53;90.94;100927.78;10414382;28;20516;-74
2022/01/26 01:09:09;;;;;;;20.77;11.75;;;;;;;-5.78;90.41;100724.25;10412829;28;20149;-73
2022/01/26 01:14:11;;;;;;;30.73;12.63;;;;;;;-5.05;90.22;100850.22;10413948;28;20054;-73
2022/01/26 01:19:29;;;;;;;20.48;11.02;;;;;;;-4.34;90.45;100978.03;10413897;28;20033;-73
2022/01/26 01:30:44;;;;;;;20.27;10.65;;;;;;;-5.23;90.16;100809.44;10427026;28;20116;-73
2022/01/26 01:35:18;;;;;;;18.42;10.30;;;;;;;-4.50;90.45;100967.41;10412105;28;20049;-73
2022/01/26 01:40:19;;;;;;;23.25;10.50;;;;;;;-5.38;90.28;100839.34;10412913;28;20542;-73
2022/01/26 01:45:33;;;;;;;17.48;8.93;;;;;;;-4.60;89.64;100997.16;10413560;28;20143;-73
2022/01/26 01:50:41;;;;;;;15.93;8.90;;;;;;;-4.80;90.59;100966.75;10413747;28;20049;-73
2022/01/26 01:55:47;;;;;;;16.40;9.30;;;;;;;-4.59;90.33;100996.25;10413168;28;20041;-74
2022/01/26 02:00:48;;;;;;;16.63;9.30;;;;;;;-5.39;89.95;100877.31;10413445;28;20045;-73
2022/01/26 02:05:49;;;;;;;19.77;10.30;;;;;;;-5.32;89.91;100914.22;10412153;28;20056;-73
2022/01/26 02:10:50;;;;;;;18.50;9.68;;;;;;;-5.50;90.59;100869.09;10412637;28;20042;-73
2022/01/26 02:16:05;;;;;;;20.45;10.00;;;;;;;-4.79;90.34;100976.22;10411957;28;20108;-73
2022/01/26 03:04:00;;;;;;;23.73;10.77;;;;;;;-5.99;89.80;100847.47;10418812;28;20128;-72
2022/01/26 03:08:59;;;;;;;25.95;9.98;;;;;;;-6.90;89.04;100700.47;10403846;28;20045;-73
2022/01/26 03:14:17;;;;;;;20.98;10.40;;;;;;;-6.14;89.62;100822.94;10377127;28;20058;-73
2022/01/26 03:19:26;;;;;;;26.02;9.57;;;;;;;-5.60;89.09;100924.63;10377569;28;20088;-73
2022/01/26 03:30:18;;;;;;;18.23;8.90;;;;;;;-5.89;89.51;100872.13;10395532;28;20500;-72
2022/01/26 03:35:31;;;;;;;19.60;8.50;;;;;;;-6.54;89.51;100782.03;10417675;28;20398;-73
2022/01/26 03:40:35;;;;;;;31.88;8.98;;;;;;;-5.48;88.91;100970.81;10416352;28;20041;-73
2022/01/26 03:45:36;;;;;;;20.08;9.18;;;;;;;-5.49;88.94;100983.84;10417534;28;20053;-73
2022/01/26 03:50:36;;;;;;;18.92;10.38;;;;;;;-6.16;89.20;100886.81;10414318;28;20033;-73
2022/01/26 03:55:37;;;;;;;21.80;10.75;;;;;;;-5.76;89.34;100963.97;10397725;28;20053;-73
2022/01/26 04:00:38;;;;;;;23.58;10.63;;;;;;;-5.85;89.14;100955.66;10417175;28;20037;-73
2022/01/26 04:05:39;;;;;;;21.88;11.07;;;;;;;-5.73;89.02;100986.31;10396427;28;20530;-73
2022/01/26 04:15:47;;;;;;;21.83;10.70;;;;;;;-5.96;88.97;100948.25;10375840;28;20052;-73
2022/01/26 04:20:51;;;;;;;27.88;9.50;;;;;;;-5.86;89.17;100970.34;10375324;28;20042;-72
2022/01/26 04:25:53;;;;;;;19.92;8.82;;;;;;;-5.85;89.44;100981.53;10374128;28;20512;-70
2022/01/26 04:30:54;;;;;;;17.70;7.95;;;;;;;-6.75;89.27;100817.16;10373054;28;20049;-73
2022/01/26 04:35:55;;;;;;;19.52;7.50;;;;;;;-6.58;89.21;100858.81;10374473;28;20494;-73
2022/01/26 04:41:09;;;;;;;16.40;7.38;;;;;;;-6.12;88.65;100931.53;10373546;28;20042;-75
2022/01/26 04:46:10;;;;;;;16.58;6.80;;;;;;;-6.18;89.18;100924.81;10373090;28;20044;-71
2022/01/26 04:51:11;;;;;;;16.38;8.00;;;;;;;-5.58;88.64;101010.88;10394330;28;20038;-71
2022/01/26 04:56:13;;;;;;;18.70;9.20;;;;;;;-5.71;88.73;100996.59;10413976;28;20488;-72
2022/01/26 05:01:14;;;;;;;14.77;8.40;;;;;;;-5.52;88.30;101013.25;10377037;28;20456;-72
2022/01/26 05:06:15;;;;;;;16.92;8.73;;;;;;;-6.25;88.27;100905.19;10372174;28;20067;-71
2022/01/26 05:11:19;;;;;;;17.02;8.60;;;;;;;-5.61;88.33;100988.50;10372726;28;20515;-71
2022/01/26 05:16:20;;;;;;;15.88;7.60;;;;;;;-5.58;88.86;100969.44;10373650;28;20081;-71
2022/01/26 05:21:22;;;;;;;22.88;7.95;;;;;;;-5.43;88.60;100961.16;10372993;28;20038;-72
2022/01/26 05:26:23;;;;;;;16.75;8.15;;;;;;;-5.33;88.37;100977.22;10372295;28;20037;-71
2022/01/26 05:31:24;;;;;;;32.97;11.25;;;;;;;-5.79;88.04;100873.50;10373495;28;20184;-72
2022/01/26 05:36:25;;;;;;;19.27;8.93;;;;;;;-5.31;88.39;100962.50;10373073;28;20132;-71
2022/01/26 05:41:27;;;;;;;27.70;8.63;;;;;;;-5.20;88.37;100929.31;10372256;28;20065;-72
2022/01/26 05:46:38;;;;;;;22.83;9.80;;;;;;;-4.96;88.38;100925.03;10371939;28;20418;-72
2022/01/26 05:51:40;;;;;;;20.55;9.00;;;;;;;-4.28;88.39;100990.78;10372727;28;20099;-72
2022/01/26 05:56:46;;;;;;;20.73;9.80;;;;;;;-4.05;87.91;100989.06;10372306;28;20038;-73
2022/01/26 06:01:49;;;;;;;18.92;9.93;;;;;;;-4.33;87.79;100914.06;10386924;28;20065;-72
2022/01/26 06:06:50;;;;;;;20.83;10.30;;;;;;;-4.29;87.68;100887.94;10371388;28;20064;-72
2022/01/26 06:11:51;;;;;;;19.20;10.23;;;;;;;-3.60;88.16;100955.25;10371071;28;20042;-72
2022/01/26 06:16:51;;;;;;;18.27;10.20;;;;;;;-4.46;87.18;100789.19;10371451;28;20109;-72
2022/01/26 06:21:52;;;;;;;21.65;10.63;;;;;;;-3.28;87.41;100964.31;10371394;28;20205;-72
2022/01/26 06:26:53;;;;;;;20.90;11.13;;;;;;;-4.17;87.40;100778.47;10376870;28;20184;-72
2022/01/26 06:31:54;;;;;;;20.42;11.13;;;;;;;-2.99;87.33;100933.63;10379845;28;20552;-72
2022/01/26 06:36:55;;;;;;;21.25;9.45;;;;;;;-2.58;87.66;100946.53;10394494;28;20473;-72
2022/01/26 06:41:56;;;;;;;18.35;10.57;;;;;;;-2.80;88.13;100879.91;10393416;28;20075;-72
2022/01/26 06:47:16;;;;;;;16.88;8.23;;;;;;;-2.20;87.30;100899.69;10379244;28;20041;-73
2022/01/26 06:52:17;;;;;;;14.07;7.70;;;;;;;-2.78;87.42;100744.63;10379192;28;20041;-73
2022/01/26 06:57:17;;;;;;;9.70;6.22;;;;;;;-1.27;87.04;100921.13;10378991;28;20037;-73
2022/01/26 07:02:18;;;;;;;9.90;6.47;;;;;;;-1.06;86.10;100916.59;10378792;28;20049;-73
2022/01/26 07:07:19;;;;;;;16.25;6.53;;;;;;;-1.95;86.66;100743.97;10378516;28;20046;-73
2022/01/26 07:12:20;;;;;;;11.98;7.15;;;;;;;-0.98;86.86;100877.91;10377766;28;20052;-73
2022/01/26 07:22:40;;;;;;;11.32;7.30;;;;;;;-0.29;86.80;100876.78;10377187;28;20485;-74
2022/01/26 07:27:42;;;;;;;14.98;8.75;;;;;;;-0.12;87.35;100914.16;10376653;28;20033;-74
2022/01/26 07:32:43;;;;;;;13.18;9.30;;;;;;;-0.84;87.42;100764.19;10376823;28;20398;-74
2022/01/26 07:37:45;;;;;;;14.50;9.60;;;;;;;0.15;87.78;100896.94;10375394;28;20116;-75
2022/01/26 07:42:45;;;;;;;20.08;11.13;;;;;;;-0.02;87.84;100853.50;10376686;28;20093;-74
2022/01/26 07:47:47;;;;;;;19.55;10.75;;;;;;;0.48;87.00;100919.47;10375185;28;20069;-73
2022/01/26 07:52:48;;;;;;;19.35;11.43;;;;;;;0.54;87.68;100892.09;10376155;28;20072;-73
2022/01/26 07:57:51;;;;;;;14.85;9.82;;;;;;;0.94;87.17;100921.97;10391304;28;20053;-73
2022/01/26 08:02:51;;;;;;;18.73;9.68;;;;;;;0.33;86.30;100776.59;10391073;28;20049;-73
2022/01/26 08:07:52;;;;;;;14.77;9.68;;;;;;;0.88;86.16;100831.63;10375697;28;20045;-75
2022/01/26 08:12:53;;;;;;;14.10;8.80;;;;;;;1.18;85.34;100830.66;10375727;28;20555;-72
2022/01/26 08:17:55;;;;;;;15.13;9.30;;;;;;;0.30;84.92;100677.47;10375647;28;20045;-73
2022/01/26 08:22:57;;;;;;;16.05;9.57;;;;;;;0.79;84.02;100717.13;10375328;28;20038;-74
2022/01/26 08:28:11;;;;;;;15.20;10.07;;;;;;;1.34;84.08;100758.06;10374779;28;20057;-73
2022/01/26 08:33:12;;;;;;;;;;;;;;;2.49;83.55;100857.09;10374953;28;20140;-72
2022/01/26 08:38:13;;;;;;;14.23;9.20;;;;;;;1.43;82.66;100685.13;10373748;28;20015;-73
2022/01/26 08:43:14;;;;;;;14.45;8.93;;;;;;;1.94;82.29;100759.41;10373386;28;20092;-73
2022/01/26 08:48:15;;;;;;;13.75;9.52;;;;;;;2.36;82.08;100814.28;10373276;28;20038;-76
2022/01/26 08:53:16;;;;;;;14.48;8.52;;;;;;;2.41;80.02;100754.50;10388821;28;20046;-73
2022/01/26 08:58:18;;;;;;;11.57;7.90;;;;;;;2.80;78.61;100794.66;10373181;28;20069;-73
2022/01/26 09:03:19;;;;;;;15.38;9.52;;;;;;;2.08;78.80;100700.84;10374264;28;20081;-74
2022/01/26 09:08:20;;;;;;;12.90;7.25;;;;;;;2.68;77.18;100778.81;10373213;28;20057;-73
2022/01/26 09:13:20;;;;;;;14.23;8.60;;;;;;;1.95;77.68;100711.31;10373462;28;20054;-74
2022/01/26 09:18:32;;;;;;;12.23;8.05;;;;;;;2.40;78.52;100789.56;10373669;28;20090;-73
2022/01/26 09:23:33;;;;;;;12.55;8.07;;;;;;;2.31;78.26;100783.16;10372500;28;20557;-74
2022/01/26 09:28:34;;;;;;;9.38;5.07;;;;;;;2.51;78.09;100776.53;10388175;28;20568;-73
2022/01/26 09:33:35;;;;;;;12.15;8.10;;;;;;;2.12;77.95;100732.91;10372523;28;20095;-74
2022/01/26 09:38:35;;;;;;;10.80;7.53;;;;;;;2.35;77.68;100733.97;10373457;28;20141;-74
2022/01/26 09:43:38;;;;;;;11.93;7.57;;;;;;;2.21;77.48;100687.72;10372906;28;20076;-73
2022/01/26 09:48:39;;;;;;;17.13;7.35;;;;;;;2.28;77.75;100697.69;10372958;28;20077;-73
2022/01/26 09:53:40;;;;;;;10.55;6.35;;;;;;;2.17;77.81;100681.84;10372066;28;20042;-73
2022/01/26 09:58:42;;;;;;;8.75;5.93;;;;;;;2.47;76.36;100730.50;10374687;28;20099;-73
2022/01/26 10:03:44;;;;;;;9.98;6.97;;;;;;;2.41;76.92;100750.09;10379294;28;20050;-73
2022/01/26 10:19:08;;;;;;;12.02;7.40;;;;;;;2.45;77.76;100703.53;10379376;28;20038;-74
2022/01/26 10:24:10;;;;;;;9.95;6.57;;;;;;;2.81;77.13;100726.31;10379813;28;20045;-75
2022/01/26 10:29:13;;;;;;;11.23;7.07;;;;;;;2.75;77.12;100705.78;10379570;28;20065;-73
2022/01/26 10:34:16;;;;;;;13.63;7.57;;;;;;;2.65;77.36;100716.09;10379442;28;20107;-74
2022/01/26 10:39:45;;;;;;;11.68;8.02;;;;;;;2.24;77.00;100671.78;10378928;28;20128;-74
2022/01/26 10:45:32;;;;;;;8.65;5.53;;;;;;;1.17;77.24;100522.84;10377608;28;20100;-73
2022/01/26 10:50:48;;;;;;;8.18;5.18;;;;;;;2.19;77.53;100682.59;10382931;28;20046;-73
2022/01/26 10:55:45;;;;;;;12.50;7.90;;;;;;;1.96;77.85;100680.72;10378072;28;20444;-74
2022/01/26 11:00:46;;;;;;;11.93;6.70;;;;;;;1.33;78.32;100611.63;10378705;28;20049;-74
2022/01/26 11:05:46;;;;;;;13.40;6.68;;;;;;;1.46;78.61;100643.88;10378607;28;20046;-73
2022/01/26 11:10:47;;;;;;;13.52;6.95;;;;;;;1.55;79.00;100665.97;10377024;28;20030;-73
2022/01/26 11:15:48;;;;;;;11.77;7.57;;;;;;;1.27;79.39;100633.78;10377689;28;20049;-74
2022/01/26 11:20:51;;;;;;;13.73;8.13;;;;;;;0.67;79.58;100553.16;10378282;28;20053;-74
2022/01/26 11:25:52;;;;;;;13.30;8.70;;;;;;;1.28;79.23;100651.16;10378058;28;20042;-75
2022/01/26 11:30:58;;;;;;;13.00;8.05;;;;;;;1.00;79.33;100586.72;10375418;28;20038;-74
2022/01/26 11:36:00;;;;;;;14.45;8.95;;;;;;;1.30;79.43;100659.75;10392341;28;20041;-75
2022/01/26 11:46:52;;;;;;;12.38;8.23;;;;;;;0.59;79.05;100578.94;10376548;28;20046;-74
2022/01/26 11:51:57;;;;;;;6.60;3.95;;;;;;;0.50;78.38;100522.03;10391647;28;20141;-74
2022/01/26 11:57:00;;;;;;;;;;;;;;;1.57;78.23;100687.69;10376442;28;20026;-74
2022/01/26 12:02:18;;;;;;;10.27;7.07;;;;;;;1.31;78.43;100685.00;10391450;28;19917;-75
2022/01/26 12:07:23;;;;;;;12.65;7.95;;;;;;;1.06;79.09;100666.59;10375790;28;20050;-74
2022/01/26 12:12:24;;;;;;;12.20;6.55;;;;;;;0.62;79.28;100607.50;10375871;28;20042;-74
2022/01/26 12:17:29;;;;;;;8.15;5.40;;;;;;;0.73;79.28;100646.06;10374271;28;20062;-74
2022/01/26 12:33:43;;;;;;;12.07;8.65;;;;;;;0.46;79.86;100560.59;10409973;28;20037;-73
2022/01/26 12:38:49;;;;;;;12.85;8.63;;;;;;;0.77;79.75;100590.00;10413438;28;20056;-74
2022/01/26 12:44:08;;;;;;;15.95;9.02;;;;;;;1.03;80.56;100675.47;10412207;28;20049;-73
2022/01/26 12:49:17;;;;;;;13.25;8.13;;;;;;;0.77;81.25;100705.91;10415438;28;20057;-73
2022/01/26 12:54:19;;;;;;;12.75;8.57;;;;;;;0.62;82.43;100693.78;10414891;28;20034;-73
2022/01/26 12:59:21;;;;;;;15.52;8.82;;;;;;;-1.39;82.45;100404.00;10415209;28;20081;-73
2022/01/26 13:04:22;;;;;;;14.20;8.27;;;;;;;-0.48;82.52;100574.22;10414597;28;20049;-73
2022/01/26 13:09:37;;;;;;;12.85;8.10;;;;;;;0.23;82.08;100706.59;10414316;28;20057;-73
2022/01/26 13:14:46;;;;;;;11.18;6.85;;;;;;;-0.90;81.67;100548.88;10414315;28;20037;-73
2022/01/26 13:25:48;;;;;;;14.48;8.50;;;;;;;-0.02;82.59;100696.78;10413880;28;20071;-73
2022/01/26 14:02:31;;;;;;;15.93;10.93;;;;;;;-0.15;84.60;100689.75;10353128;28;20471;-71
2022/01/26 14:07:33;;;;;;;16.10;10.82;;;;;;;-0.46;84.96;100641.97;10412140;28;20148;-81
2022/01/26 14:12:39;;;;;;;15.85;10.07;;;;;;;-0.48;84.94;100654.25;10403624;28;20041;-75
2022/01/26 14:17:57;;;;;;;13.15;8.93;;;;;;;-1.65;85.41;100448.97;10407849;28;20044;-74
2022/01/26 14:23:14;;;;;;;17.75;10.77;;;;;;;-0.82;85.95;100577.97;10402716;28;20041;-74
2022/01/26 14:28:18;;;;;;;16.00;9.27;;;;;;;-0.55;86.48;100632.09;10407310;28;20068;-78
2022/01/26 14:54:41;;;;;;;16.38;9.95;;;;;;;-1.07;88.68;100627.25;10411397;28;20527;-77
2022/01/26 15:00:13;;;;;;;16.63;10.05;;;;;;;-1.29;88.55;100599.78;10406428;28;20075;-78
2022/01/26 15:22:44;;;;;;;16.13;11.23;;;;;;;-0.78;89.64;100696.00;10419025;28;20038;-79
2022/01/26 15:58:34;;;;;;;26.15;16.13;;;;;;;-0.86;90.67;100680.81;10417362;28;20072;-78
2022/01/26 18:16:38;;;;;;;26.98;13.88;;;;;;;-2.42;96.68;100546.88;10364712;28;20038;-76
2022/01/26 18:31:45;;;;;;;24.05;11.85;;;;;;;-2.82;97.58;100481.31;10374537;28;20109;-75
2022/01/26 18:32:29;;;;;;;27.15;13.00;;;;;;;-2.06;97.48;100605.72;10374896;28;20029;-75
2022/01/26 18:53:27;;;;;;;23.10;12.40;;;;;;;-2.26;98.20;100572.94;10373794;28;20041;-76
2022/01/26 18:58:28;;;;;;;22.65;12.13;;;;;;;-1.84;98.29;100634.91;10372089;28;20040;-76
2022/01/26 19:03:29;;;;;;;23.08;11.30;;;;;;;-1.77;98.66;100642.38;10356519;28;20073;-74
2022/01/26 19:08:32;;;;;;;20.10;10.43;;;;;;;-2.95;98.16;100428.31;10337438;28;20046;-75
2022/01/26 19:13:33;;;;;;;18.75;9.85;;;;;;;-1.59;98.38;100638.78;10336875;28;20509;-75
2022/01/26 19:40:38;;;;;;;16.33;8.88;;;;;;;-2.77;98.24;100468.09;10394540;28;20041;-76
2022/01/26 19:50:50;;;;;;;18.58;9.63;;;;;;;-3.70;97.90;100318.69;10370277;28;20049;-75
2022/01/26 19:55:50;;;;;;;16.63;8.85;;;;;;;-2.56;98.08;100500.78;10373905;28;20053;-75
2022/01/26 20:00:52;;;;;;;17.35;8.85;;;;;;;-3.07;98.15;100414.19;10369787;28;20107;-75
2022/01/26 20:05:54;;;;;;;17.13;9.45;;;;;;;-2.07;98.70;100578.84;10388681;28;20123;-75
2022/01/26 20:11:02;;;;;;;16.65;9.05;;;;;;;-2.75;98.21;100458.47;10364976;28;20045;-74
2022/01/26 20:16:04;;;;;;;16.25;9.55;;;;;;;-2.75;98.48;100476.66;10359083;28;20073;-75
2022/01/26 20:21:06;;;;;;;16.75;8.70;;;;;;;-1.81;97.94;100625.25;10353806;28;20049;-75
2022/01/26 20:26:08;;;;;;;16.90;9.05;;;;;;;-1.78;98.95;100625.91;10334610;28;20041;-76
2022/01/26 20:31:22;;;;;;;18.80;8.35;;;;;;;-2.23;98.96;100536.34;10334843;28;20054;-75
2022/01/26 20:36:28;;;;;;;16.85;9.02;;;;;;;-1.81;98.35;100600.03;10334494;28;20104;-75
2022/01/26 20:41:30;;;;;;;16.13;9.13;;;;;;;-2.92;97.58;100402.16;10333343;28;20133;-75
2022/01/26 20:46:31;;;;;;;15.35;9.18;;;;;;;-2.33;97.65;100499.56;10332022;28;20038;-75
2022/01/26 20:51:32;;;;;;;18.10;8.45;;;;;;;-2.34;97.53;100497.88;10333643;28;20124;-75
2022/01/26 20:56:33;;;;;;;20.10;9.15;;;;;;;-3.40;97.10;100340.59;10331883;28;20108;-77
2022/01/26 21:01:33;;;;;;;15.00;8.15;;;;;;;-1.65;97.37;100665.16;10333906;28;20054;-75
2022/01/26 21:06:34;;;;;;;12.90;7.57;;;;;;;-2.69;97.21;100475.47;10347698;28;20041;-75
2022/01/26 21:11:35;;;;;;;15.02;6.85;;;;;;;-2.22;96.74;100571.00;10373951;28;20450;-75
2022/01/26 21:16:37;;;;;;;15.40;6.45;;;;;;;-2.43;96.77;100524.38;10372916;28;20116;-75
2022/01/26 21:21:38;;;;;;;14.38;8.00;;;;;;;-1.99;96.64;100585.41;10373993;28;20421;-75
2022/01/26 21:26:39;;;;;;;13.98;7.47;;;;;;;-2.32;97.11;100535.06;10373115;28;20046;-75
2022/01/26 21:31:40;;;;;;;15.00;7.60;;;;;;;-3.41;96.86;100399.50;10373331;28;20410;-74
2022/01/26 21:36:41;;;;;;;15.98;8.38;;;;;;;-1.94;97.57;100625.91;10371275;28;20048;-75
2022/01/26 21:41:42;;;;;;;12.95;6.88;;;;;;;-1.87;97.54;100614.22;10373080;28;20069;-74
2022/01/26 21:46:43;;;;;;;14.43;7.93;;;;;;;-2.66;97.77;100507.38;10372354;28;20048;-75
2022/01/26 21:51:44;;;;;;;12.95;7.35;;;;;;;-1.78;97.94;100619.88;10372371;28;20413;-74
2022/01/26 21:56:45;;;;;;;13.18;6.97;;;;;;;-1.68;97.22;100600.22;10371928;28;20034;-75
2022/01/26 22:01:46;;;;;;;13.73;7.38;;;;;;;-2.74;97.31;100431.53;10373001;28;20058;-75
2022/01/26 22:06:47;;;;;;;19.48;9.05;;;;;;;-1.78;97.36;100604.25;10372137;28;20061;-74
2022/01/26 22:11:47;;;;;;;13.27;7.32;;;;;;;-1.81;97.74;100620.88;10371339;28;20489;-75
2022/01/26 22:16:48;;;;;;;16.42;8.30;;;;;;;-2.89;97.62;100446.19;10372130;28;20065;-75
2022/01/26 22:21:49;;;;;;;13.85;7.38;;;;;;;-2.09;97.87;100575.50;10371898;28;20498;-75
2022/01/26 22:26:51;;;;;;;12.55;7.15;;;;;;;-1.96;98.29;100601.69;10372374;28;20034;-75
2022/01/26 22:31:52;;;;;;;17.67;8.43;;;;;;;-1.93;98.34;100595.50;10371010;28;20046;-74
2022/01/26 22:36:54;;;;;;;14.65;8.70;;;;;;;-2.65;97.61;100461.41;10371135;28;20041;-75
2022/01/26 22:41:54;;;;;;;14.40;7.88;;;;;;;-1.91;98.62;100575.44;10370690;28;20064;-75
2022/01/26 22:46:55;;;;;;;14.02;8.18;;;;;;;-3.53;98.03;100297.09;10371521;28;20497;-74
2022/01/26 22:51:56;;;;;;;12.45;6.93;;;;;;;-2.05;98.05;100565.75;10370464;28;20050;-75
2022/01/26 22:56:59;;;;;;;18.13;7.30;;;;;;;-2.11;97.90;100568.69;10371315;28;20065;-74
2022/01/26 23:07:01;;;;;;;16.30;7.32;;;;;;;-1.88;98.89;100604.75;10374254;28;20129;-75
2022/01/26 23:12:02;;;;;;;13.98;8.35;;;;;;;-2.28;98.69;100524.50;10376216;28;20045;-74
2022/01/26 23:17:03;;;;;;;13.95;8.02;;;;;;;-2.39;99.30;100489.50;10377462;28;20121;-75
2022/01/26 23:22:04;;;;;;;13.05;7.68;;;;;;;-1.49;99.42;100584.44;10378307;28;20050;-75
2022/01/26 23:27:16;;;;;;;11.15;7.25;;;;;;;-2.34;98.40;100443.22;10377723;28;20053;-78
2022/01/26 23:32:36;;;;;;;13.63;6.97;;;;;;;-2.09;98.29;100473.16;10377735;28;20065;-75
2022/01/26 23:37:50;;;;;;;11.45;6.65;;;;;;;-1.37;98.72;100588.97;10376806;28;20038;-76
2022/01/26 23:43:49;;;;;;;12.93;7.88;;;;;;;-1.12;98.31;100624.06;10374180;28;20061;-77
2022/01/26 23:59:54;;;;;;;12.25;6.35;;;;;;;-1.85;98.22;100469.19;10376463;28;20042;-75
